Rexburg, Mississippi
Current Conditions -  °F | °C
As of 7:53 PM on Monday 22 Dec 2014 (Local Time) from KGLH Reporting Station
Haze Haze  
Wind Chill: 60°   Ceiling: 6000
Heat Index: 60°   Visibility: 6mi
Dew Point: 57°   Wind: 7mph
Humidity: 90%   Direction: 170°S
Pressure: 29.64"   Gusts: NA
Location:  33.4469°N, 90.8665°W
Report Text: KGLH 230153Z AUTO 17006KT 6SM BR OVC060 16/14 A2964 RMK AO2 SLP043 T01560139
Loading
Personal Weather Stations






























Interactive Weather Map New forecast layout! Learn more

10-Day Weather Forecast

Advertisements
Track Severe Weather on mobile